createdAt,value
2023-12-15T00:02:29.806Z,14.50
2023-12-15T00:05:00.651Z,14.00
2023-12-15T00:07:34.796Z,14.25
2023-12-15T00:10:05.492Z,15.50
2023-12-15T00:12:35.968Z,13.52
2023-12-15T00:15:07.110Z,14.52
2023-12-15T00:17:37.831Z,14.20
2023-12-15T00:20:10.326Z,13.98
2023-12-15T00:22:43.479Z,13.93
2023-12-15T00:25:13.917Z,13.57
2023-12-15T00:27:44.672Z,14.05
2023-12-15T00:30:16.936Z,14.68
2023-12-15T00:32:51.267Z,14.45
2023-12-15T00:35:21.803Z,13.77
2023-12-15T00:37:54.982Z,13.68
2023-12-15T00:40:26.082Z,13.98
2023-12-15T00:42:56.640Z,13.88
2023-12-15T00:45:27.648Z,15.23
2023-12-15T00:47:58.123Z,15.07
2023-12-15T00:50:30.405Z,15.02
2023-12-15T00:53:03.778Z,13.95
2023-12-15T00:55:34.360Z,13.23
2023-12-15T00:58:05.538Z,15.77
2023-12-15T01:00:36.040Z,13.95
2023-12-15T01:03:07.067Z,14.73
2023-12-15T01:05:37.601Z,13.27
2023-12-15T01:08:10.819Z,15.50
2023-12-15T01:10:41.281Z,16.42
2023-12-15T01:13:11.806Z,14.10
2023-12-15T01:15:42.301Z,16.65
2023-12-15T01:18:13.199Z,14.43
2023-12-15T01:20:43.756Z,14.50
2023-12-15T01:23:17.717Z,15.05
2023-12-15T01:25:48.266Z,12.90
2023-12-15T01:28:18.955Z,13.88
2023-12-15T01:30:49.780Z,14.32
2023-12-15T01:33:20.859Z,13.45
2023-12-15T01:35:52.243Z,14.43
2023-12-15T01:38:25.471Z,13.13
2023-12-15T01:40:55.978Z,15.18
2023-12-15T01:43:26.651Z,15.05
2023-12-15T01:46:05.068Z,12.20
2023-12-15T01:48:39.769Z,13.90
2023-12-15T01:51:10.989Z,14.13
2023-12-15T01:53:44.492Z,14.55
2023-12-15T01:56:16.547Z,14.93
2023-12-15T01:58:47.102Z,16.15
2023-12-15T02:01:17.625Z,14.45
2023-12-15T02:03:49.575Z,15.43
2023-12-15T02:06:20.817Z,14.70
2023-12-15T02:08:53.903Z,13.90
2023-12-15T02:11:24.404Z,13.88
2023-12-15T02:13:54.895Z,14.00
2023-12-15T02:16:25.417Z,13.93
2023-12-15T02:18:55.933Z,15.52
2023-12-15T02:21:26.504Z,13.38
2023-12-15T02:23:59.743Z,13.82
2023-12-15T02:26:30.258Z,13.90
2023-12-15T02:29:00.839Z,13.90
2023-12-15T02:31:31.277Z,13.63
2023-12-15T02:34:01.776Z,16.17
2023-12-15T02:36:32.641Z,15.93
2023-12-15T02:39:04.298Z,14.75
2023-12-15T02:41:35.216Z,14.43
2023-12-15T02:44:05.688Z,13.85
2023-12-15T02:46:40.488Z,13.63
2023-12-15T02:49:11.073Z,14.27
2023-12-15T02:51:41.630Z,13.05
2023-12-15T02:54:14.740Z,14.88
2023-12-15T02:56:45.225Z,13.63
2023-12-15T02:59:15.738Z,14.73
2023-12-15T03:01:46.194Z,13.70
2023-12-15T03:04:16.701Z,12.93
2023-12-15T03:06:47.126Z,14.48
2023-12-15T03:09:20.213Z,14.70
2023-12-15T03:11:50.837Z,12.77
2023-12-15T03:14:21.353Z,14.52
2023-12-15T03:16:51.937Z,14.02
2023-12-15T03:19:22.499Z,13.13
2023-12-15T03:21:53.040Z,14.05
2023-12-15T03:24:26.067Z,15.27
2023-12-15T03:26:56.495Z,14.48
2023-12-15T03:29:27.223Z,15.40
2023-12-15T03:31:58.011Z,13.55
2023-12-15T03:34:28.502Z,15.05
2023-12-15T03:36:59.028Z,16.30
2023-12-15T03:39:32.115Z,16.30
2023-12-15T03:42:06.737Z,15.60
2023-12-15T03:44:40.625Z,14.93
2023-12-15T03:47:12.446Z,16.73
2023-12-15T03:49:42.875Z,16.55
2023-12-15T03:52:13.259Z,17.13
2023-12-15T03:54:46.406Z,17.95
2023-12-15T03:57:16.931Z,17.00
2023-12-15T03:59:48.053Z,16.42
2023-12-15T04:02:22.816Z,16.58
2023-12-15T04:04:53.444Z,16.65
2023-12-15T04:07:23.969Z,15.73
2023-12-15T04:09:57.009Z,15.52
2023-12-15T04:12:27.500Z,13.73
2023-12-15T04:14:58.227Z,13.95
2023-12-15T04:17:28.816Z,16.48
2023-12-15T04:19:59.735Z,14.73
2023-12-15T04:22:30.227Z,14.57
2023-12-15T04:25:03.413Z,15.10
2023-12-15T04:27:37.593Z,13.00
2023-12-15T04:30:11.096Z,14.27
2023-12-15T04:33:16.993Z,12.88
2023-12-15T04:35:48.685Z,14.60
2023-12-15T04:38:18.992Z,15.95
2023-12-15T04:40:51.945Z,13.95
2023-12-15T04:43:22.180Z,14.38
2023-12-15T04:45:52.455Z,14.32
2023-12-15T04:48:22.813Z,13.73
2023-12-15T04:50:53.675Z,16.42
2023-12-15T04:53:24.286Z,18.10
2023-12-15T04:55:57.250Z,16.13
2023-12-15T04:58:27.536Z,17.73
2023-12-15T05:00:58.215Z,16.90
2023-12-15T05:03:28.909Z,14.98
2023-12-15T05:05:59.315Z,15.25
2023-12-15T05:08:29.688Z,15.43
2023-12-15T05:11:02.614Z,14.50
2023-12-15T05:13:32.989Z,16.00
2023-12-15T05:16:03.287Z,15.88
2023-12-15T05:18:33.649Z,15.30
2023-12-15T05:21:04.088Z,13.50
2023-12-15T05:23:35.544Z,15.25
2023-12-15T05:26:08.932Z,15.02
2023-12-15T05:28:40.408Z,12.90
2023-12-15T05:31:11.484Z,15.40
2023-12-15T05:33:41.839Z,14.45
2023-12-15T05:36:20.954Z,14.93
2023-12-15T05:38:54.393Z,14.82
2023-12-15T05:41:27.374Z,14.52
2023-12-15T05:43:57.787Z,14.10
2023-12-15T05:46:28.448Z,13.95
2023-12-15T05:48:59.177Z,14.65
2023-12-15T05:51:29.532Z,14.90
2023-12-15T05:53:59.828Z,13.77
2023-12-15T05:56:33.019Z,13.85
2023-12-15T05:59:03.413Z,14.20
2023-12-15T06:01:33.783Z,14.90
2023-12-15T06:04:04.058Z,14.25
2023-12-15T06:06:34.413Z,15.07
2023-12-15T06:09:05.266Z,15.15
2023-12-15T06:11:43.453Z,14.07
2023-12-15T06:14:14.757Z,14.55
2023-12-15T06:16:45.623Z,14.43
2023-12-15T06:19:18.219Z,13.93
2023-12-15T06:21:48.605Z,14.90
2023-12-15T06:24:18.931Z,14.27
2023-12-15T06:26:51.866Z,13.65
2023-12-15T06:29:22.174Z,14.18
2023-12-15T06:31:52.949Z,14.27
2023-12-15T06:34:23.237Z,13.23
2023-12-15T06:36:53.580Z,14.95
2023-12-15T06:39:23.875Z,14.35
2023-12-15T06:41:58.378Z,15.10
2023-12-15T06:44:29.039Z,13.63
2023-12-15T06:46:59.496Z,13.57
2023-12-15T06:49:32.329Z,15.82
2023-12-15T06:52:03.247Z,16.48
2023-12-15T06:54:34.092Z,15.98
2023-12-15T06:57:07.524Z,15.68
2023-12-15T06:59:38.051Z,15.73
2023-12-15T07:02:08.367Z,14.57
2023-12-15T07:04:39.480Z,14.80
2023-12-15T07:07:09.839Z,14.73
2023-12-15T07:09:40.276Z,16.20
2023-12-15T07:12:15.602Z,16.25
2023-12-15T07:14:45.972Z,14.70
2023-12-15T07:17:16.332Z,14.82
2023-12-15T07:19:46.784Z,14.05
2023-12-15T07:22:19.503Z,14.25
2023-12-15T07:24:51.178Z,18.73
2023-12-15T07:27:24.217Z,16.48
2023-12-15T07:29:54.573Z,22.95
2023-12-15T07:32:24.965Z,24.20
2023-12-15T07:34:55.404Z,24.20
2023-12-15T07:37:25.734Z,22.10
2023-12-15T07:39:56.104Z,22.90
2023-12-15T07:42:30.196Z,20.60
2023-12-15T07:45:00.523Z,18.05
2023-12-15T07:47:31.135Z,16.60
2023-12-15T07:50:01.924Z,15.15
2023-12-15T07:52:32.329Z,14.68
2023-12-15T07:55:02.710Z,16.15
2023-12-15T07:57:37.375Z,17.65
2023-12-15T08:00:14.101Z,16.95
2023-12-15T08:02:46.061Z,15.70
2023-12-15T08:05:16.575Z,14.65
2023-12-15T08:07:46.961Z,14.13
2023-12-15T08:10:17.337Z,16.25
2023-12-15T08:12:50.373Z,16.45
2023-12-15T08:15:20.753Z,15.35
2023-12-15T08:17:51.331Z,15.98
2023-12-15T08:20:23.132Z,17.38
2023-12-15T08:22:53.588Z,17.17
2023-12-15T08:25:23.894Z,14.30
2023-12-15T08:27:57.243Z,15.48
2023-12-15T08:30:27.639Z,15.23
2023-12-15T08:32:59.653Z,15.52
2023-12-15T08:35:30.136Z,15.13
2023-12-15T08:38:00.785Z,14.95
2023-12-15T08:40:31.889Z,14.68
2023-12-15T08:43:04.939Z,13.65
2023-12-15T08:45:35.327Z,16.17
2023-12-15T08:48:05.913Z,13.70
2023-12-15T08:50:36.398Z,13.50
2023-12-15T08:53:09.110Z,13.32
2023-12-15T08:55:39.416Z,14.75
2023-12-15T08:58:12.396Z,14.80
2023-12-15T09:00:44.058Z,15.68
2023-12-15T09:03:15.489Z,16.60
2023-12-15T09:06:07.903Z,17.38
2023-12-15T09:08:36.402Z,19.05
2023-12-15T09:11:07.324Z,16.98
2023-12-15T09:13:40.433Z,16.42
2023-12-15T09:16:12.134Z,16.40
2023-12-15T09:18:42.554Z,16.33
2023-12-15T09:21:12.926Z,14.82
2023-12-15T09:23:43.301Z,14.40
2023-12-15T09:26:14.074Z,14.88
2023-12-15T09:28:47.275Z,14.43
2023-12-15T09:31:17.591Z,13.65
2023-12-15T09:33:48.604Z,13.52
2023-12-15T09:36:19.028Z,14.00
2023-12-15T09:38:49.344Z,14.43
2023-12-15T09:41:19.930Z,13.65
2023-12-15T09:43:53.617Z,14.23
2023-12-15T09:46:25.352Z,13.60
2023-12-15T09:48:56.470Z,12.65
2023-12-15T09:51:31.458Z,11.73
2023-12-15T09:54:01.737Z,12.20
2023-12-15T09:56:32.305Z,10.95
2023-12-15T09:59:05.273Z,12.00
2023-12-15T10:01:36.333Z,13.00
2023-12-15T10:04:06.754Z,12.57
2023-12-15T10:06:38.495Z,11.82
2023-12-15T10:09:14.802Z,13.35
2023-12-15T10:11:48.309Z,13.15
2023-12-15T10:14:22.509Z,10.93
2023-12-15T10:16:52.848Z,10.38
2023-12-15T10:19:23.342Z,10.50
2023-12-15T10:21:53.799Z,11.32
2023-12-15T10:24:26.113Z,13.57
2023-12-15T10:26:56.462Z,13.07
2023-12-15T10:29:29.711Z,13.32
2023-12-15T10:32:00.339Z,12.82
2023-12-15T10:34:33.686Z,10.98
2023-12-15T10:37:05.176Z,12.77
2023-12-15T10:39:35.666Z,12.00
2023-12-15T10:42:07.030Z,12.23
2023-12-15T10:44:41.439Z,13.02
2023-12-15T10:47:12.661Z,11.23
2023-12-15T10:49:52.576Z,12.02
2023-12-15T10:52:26.349Z,11.10
2023-12-15T10:54:58.249Z,11.20
2023-12-15T10:57:28.554Z,10.35
2023-12-15T11:00:01.992Z,8.73
2023-12-15T11:02:34.268Z,9.57
2023-12-15T11:05:05.589Z,10.15
2023-12-15T11:07:36.518Z,8.60
2023-12-15T11:10:10.476Z,10.52
2023-12-15T11:12:42.357Z,9.98
2023-12-15T11:15:17.700Z,8.82
2023-12-15T11:17:51.462Z,9.38
2023-12-15T11:20:44.104Z,9.85
2023-12-15T11:23:16.201Z,9.38
2023-12-15T11:26:01.416Z,9.43
2023-12-15T11:28:35.336Z,8.40
2023-12-15T11:31:25.521Z,8.45
2023-12-15T11:33:55.956Z,9.23
2023-12-15T11:36:26.340Z,8.07
2023-12-15T11:38:57.043Z,8.93
2023-12-15T11:41:27.511Z,7.97
2023-12-15T11:43:59.759Z,8.60
2023-12-15T11:46:32.768Z,8.40
2023-12-15T11:49:03.108Z,8.88
2023-12-15T11:51:34.608Z,8.45
2023-12-15T11:54:06.288Z,8.13
2023-12-15T11:56:36.788Z,8.88
2023-12-15T11:59:07.232Z,9.13
2023-12-15T12:01:42.740Z,9.38
2023-12-15T12:04:21.800Z,9.43
2023-12-15T12:06:52.260Z,9.60
2023-12-15T12:09:23.824Z,8.88
2023-12-15T12:11:57.112Z,9.90
2023-12-15T12:14:33.441Z,10.90
2023-12-15T12:17:06.662Z,10.43
2023-12-15T12:19:43.798Z,10.75
2023-12-15T12:22:15.384Z,9.88
2023-12-15T12:24:45.928Z,9.73
2023-12-15T12:27:16.246Z,9.77
2023-12-15T12:29:48.086Z,11.02
2023-12-15T12:32:22.902Z,11.30
2023-12-15T12:34:53.761Z,10.40
2023-12-15T12:37:24.279Z,10.80
2023-12-15T12:39:54.631Z,10.35
2023-12-15T12:42:25.943Z,10.15
2023-12-15T12:44:56.400Z,9.65
2023-12-15T12:47:30.170Z,10.55
2023-12-15T12:50:01.140Z,10.63
2023-12-15T12:52:35.213Z,11.27
2023-12-15T12:55:08.125Z,9.57
2023-12-15T12:57:38.601Z,9.30
2023-12-15T13:00:10.964Z,9.35
2023-12-15T13:02:44.121Z,9.15
2023-12-15T13:05:15.249Z,7.80
2023-12-15T13:07:45.526Z,8.88
2023-12-15T13:10:18.463Z,9.45
2023-12-15T13:12:56.791Z,9.45
2023-12-15T13:15:27.665Z,9.10
2023-12-15T13:20:37.949Z,8.90
2023-12-15T13:23:10.764Z,9.20
2023-12-15T13:25:41.436Z,8.82
2023-12-15T13:28:11.840Z,8.85
2023-12-15T13:30:44.800Z,8.20
2023-12-15T13:33:18.384Z,8.80
2023-12-15T13:35:50.063Z,8.32
2023-12-15T13:38:20.563Z,8.27
2023-12-15T13:40:51.245Z,7.80
2023-12-15T13:43:21.733Z,8.13
2023-12-15T13:45:57.874Z,7.65
2023-12-15T13:48:35.619Z,7.55
2023-12-15T13:51:06.270Z,8.35
2023-12-15T13:53:36.878Z,8.55
2023-12-15T13:56:08.106Z,8.27
2023-12-15T13:58:38.524Z,8.13
2023-12-15T14:01:11.734Z,9.00
2023-12-15T14:06:18.394Z,8.43
2023-12-15T14:08:49.090Z,7.43
2023-12-15T14:11:19.737Z,8.60
2023-12-15T14:13:50.343Z,8.65
2023-12-15T14:16:28.080Z,8.48
2023-12-15T14:19:09.837Z,8.70
2023-12-15T14:21:40.464Z,8.13
2023-12-15T14:24:12.561Z,8.90
2023-12-15T14:26:43.802Z,8.63
2023-12-15T14:29:14.778Z,8.82
2023-12-15T14:31:45.444Z,9.15
2023-12-15T14:34:21.605Z,8.95
2023-12-15T14:39:22.708Z,8.35
2023-12-15T14:41:55.279Z,8.88
2023-12-15T14:44:26.481Z,8.50
2023-12-15T14:46:57.237Z,8.07
2023-12-15T14:49:30.836Z,9.27
2023-12-15T14:52:01.398Z,9.13
2023-12-15T14:54:31.867Z,7.68
2023-12-15T14:57:02.326Z,9.30
2023-12-15T14:59:32.807Z,7.68
2023-12-15T15:02:03.616Z,8.38
2023-12-15T15:04:36.741Z,7.90
2023-12-15T15:07:07.773Z,8.35
2023-12-15T15:09:38.222Z,8.60
2023-12-15T15:12:09.274Z,7.55
2023-12-15T15:14:40.946Z,8.85
2023-12-15T15:17:11.463Z,8.00
2023-12-15T15:19:44.570Z,7.40
2023-12-15T15:22:16.867Z,8.57
2023-12-15T15:24:47.360Z,8.13
2023-12-15T15:27:17.793Z,7.95
2023-12-15T15:29:48.304Z,7.80
2023-12-15T15:32:19.894Z,7.57
2023-12-15T15:34:59.422Z,8.43
2023-12-15T15:37:36.587Z,8.53
2023-12-15T15:40:12.600Z,7.32
2023-12-15T15:42:45.688Z,9.27
2023-12-15T15:45:24.953Z,8.52
2023-12-15T15:47:58.121Z,8.57
2023-12-15T15:50:32.327Z,8.57
2023-12-15T15:53:07.843Z,8.18
2023-12-15T15:55:38.448Z,9.30
2023-12-15T15:58:09.214Z,8.68
2023-12-15T16:00:39.860Z,9.45
2023-12-15T16:03:10.496Z,9.90
2023-12-15T16:05:43.821Z,9.15
2023-12-15T16:08:14.313Z,10.02
2023-12-15T16:10:46.453Z,10.68
2023-12-15T16:13:17.138Z,9.80
2023-12-15T16:15:47.773Z,9.90
2023-12-15T16:18:19.600Z,10.68
2023-12-15T16:20:53.413Z,10.82
2023-12-15T16:23:24.523Z,11.07
2023-12-15T16:25:55.350Z,12.30
2023-12-15T16:28:25.786Z,12.27
2023-12-15T16:30:56.321Z,12.10
2023-12-15T16:33:27.133Z,11.00
2023-12-15T16:36:00.569Z,11.57
2023-12-15T16:38:31.047Z,10.82
2023-12-15T16:41:01.509Z,10.82
2023-12-15T16:43:33.030Z,11.15
2023-12-15T16:46:04.506Z,11.25
2023-12-15T16:48:35.010Z,13.40
2023-12-15T16:51:10.940Z,10.93
2023-12-15T16:53:41.909Z,12.43
2023-12-15T16:56:13.346Z,11.60
2023-12-15T16:58:43.771Z,11.68
2023-12-15T17:01:14.515Z,10.40
2023-12-15T17:03:46.774Z,11.15
2023-12-15T17:06:20.008Z,11.82
2023-12-15T17:08:50.522Z,11.70
2023-12-15T17:11:21.371Z,11.73
2023-12-15T17:13:51.786Z,10.70
2023-12-15T17:16:22.281Z,10.95
2023-12-15T17:18:52.821Z,11.20
2023-12-15T17:21:26.718Z,10.00
2023-12-15T17:23:57.324Z,11.55
2023-12-15T17:26:27.770Z,10.63
2023-12-15T17:28:58.333Z,10.65
2023-12-15T17:31:28.808Z,11.23
2023-12-15T17:33:59.421Z,10.48
2023-12-15T17:36:32.573Z,10.63
2023-12-15T17:39:03.120Z,9.75
2023-12-15T17:41:33.609Z,10.25
2023-12-15T17:44:04.531Z,11.05
2023-12-15T17:46:35.010Z,10.40
2023-12-15T17:49:07.057Z,9.95
2023-12-15T17:51:41.763Z,9.90
2023-12-15T17:54:14.705Z,9.75
2023-12-15T17:56:47.292Z,9.82
2023-12-15T17:59:18.025Z,10.10
2023-12-15T18:01:48.652Z,11.27
2023-12-15T18:04:19.355Z,12.35
2023-12-15T18:06:52.501Z,10.90
2023-12-15T18:09:23.016Z,10.30
2023-12-15T18:11:53.591Z,10.70
2023-12-15T18:14:24.103Z,11.00
2023-12-15T18:16:54.558Z,11.60
2023-12-15T18:19:25.113Z,10.23
2023-12-15T18:21:58.492Z,10.77
2023-12-15T18:24:29.331Z,10.57
2023-12-15T18:27:03.613Z,9.82
2023-12-15T18:29:35.877Z,10.00
2023-12-15T18:32:07.066Z,10.45
2023-12-15T18:34:37.924Z,10.10
2023-12-15T18:37:13.957Z,12.27
2023-12-15T18:39:42.201Z,15.30
2023-12-15T18:42:13.368Z,17.20
2023-12-15T18:44:45.048Z,14.23
2023-12-15T18:47:17.386Z,12.10
2023-12-15T18:49:51.777Z,12.00
2023-12-15T18:52:26.381Z,12.30
2023-12-15T18:55:00.482Z,13.23
2023-12-15T18:57:46.628Z,13.25
2023-12-15T19:00:23.456Z,11.30
2023-12-15T19:02:57.259Z,11.05
2023-12-15T19:05:33.087Z,12.52
2023-12-15T19:08:06.665Z,11.95
2023-12-15T19:10:37.185Z,12.15
2023-12-15T19:13:07.763Z,12.07
2023-12-15T19:15:38.500Z,12.57
2023-12-15T19:18:12.448Z,12.68
2023-12-15T19:20:52.115Z,12.88
2023-12-15T19:23:25.711Z,11.57
2023-12-15T19:25:59.475Z,11.98
2023-12-15T19:28:32.346Z,12.95
2023-12-15T19:31:03.353Z,12.30
2023-12-15T19:33:34.277Z,12.82
2023-12-15T19:36:05.758Z,11.75
2023-12-15T19:38:40.881Z,12.45
2023-12-15T19:41:23.272Z,12.10
2023-12-15T19:43:55.478Z,12.35
2023-12-15T19:46:28.928Z,11.73
2023-12-15T19:48:59.694Z,12.05
2023-12-15T19:51:30.311Z,11.20
2023-12-15T19:54:12.492Z,12.75
2023-12-15T19:56:49.643Z,13.30
2023-12-15T19:59:20.716Z,12.52
2023-12-15T20:01:51.346Z,11.95
2023-12-15T20:04:21.996Z,12.68
2023-12-15T20:06:53.809Z,12.05
2023-12-15T20:09:27.861Z,13.40
2023-12-15T20:11:59.072Z,14.38
2023-12-15T20:14:29.724Z,14.65
2023-12-15T20:17:01.509Z,13.82
2023-12-15T20:19:32.097Z,11.70
2023-12-15T20:22:02.884Z,12.40
2023-12-15T20:24:36.146Z,11.48
2023-12-15T20:27:18.945Z,13.23
2023-12-15T20:29:49.645Z,12.60
2023-12-15T20:32:20.285Z,12.93
2023-12-15T20:34:51.637Z,11.85
2023-12-15T20:37:22.487Z,11.90
2023-12-15T20:39:55.834Z,11.25
2023-12-15T20:42:29.880Z,11.85
2023-12-15T20:45:00.350Z,11.30
2023-12-15T20:47:31.960Z,11.40
2023-12-15T20:50:05.034Z,12.05
2023-12-15T20:52:35.744Z,10.68
2023-12-15T20:55:12.687Z,11.77
2023-12-15T20:57:45.500Z,12.90
2023-12-15T21:00:17.402Z,11.63
2023-12-15T21:02:47.970Z,10.35
2023-12-15T21:05:19.391Z,11.63
2023-12-15T21:07:50.519Z,11.95
2023-12-15T21:10:24.066Z,10.73
2023-12-15T21:12:54.675Z,11.13
2023-12-15T21:15:25.211Z,10.75
2023-12-15T21:17:56.014Z,11.50
2023-12-15T21:20:26.633Z,11.27
2023-12-15T21:22:57.276Z,11.00
2023-12-15T21:25:34.128Z,12.30
2023-12-15T21:28:05.367Z,11.23
2023-12-15T21:30:36.469Z,11.00
2023-12-15T21:33:08.790Z,10.15
2023-12-15T21:35:46.966Z,10.63
2023-12-15T21:38:23.141Z,11.15
2023-12-15T21:40:56.665Z,10.80
2023-12-15T21:43:29.441Z,11.10
2023-12-15T21:46:02.033Z,10.50
2023-12-15T21:48:44.955Z,11.52
2023-12-15T21:51:30.830Z,11.25
2023-12-15T21:54:02.768Z,10.60
2023-12-15T21:56:36.376Z,10.23
2023-12-15T21:59:07.428Z,10.13
2023-12-15T22:01:44.131Z,10.48
2023-12-15T22:04:15.262Z,11.20
2023-12-15T22:06:45.880Z,11.02
2023-12-15T22:09:16.700Z,10.60
2023-12-15T22:11:49.808Z,10.68
2023-12-15T22:14:26.437Z,10.32
2023-12-15T22:17:02.613Z,10.27
2023-12-15T22:19:33.137Z,11.43
2023-12-15T22:22:04.827Z,9.75
2023-12-15T22:24:35.451Z,10.48
2023-12-15T22:27:09.176Z,10.90
2023-12-15T22:29:42.272Z,10.40
2023-12-15T22:32:12.722Z,10.23
2023-12-15T22:34:40.669Z,10.35
2023-12-15T22:37:11.250Z,11.65
2023-12-15T22:39:41.772Z,10.02
2023-12-15T22:42:15.355Z,11.00
2023-12-15T22:44:46.338Z,10.63
2023-12-15T22:47:17.868Z,11.00
2023-12-15T22:49:48.778Z,10.27
2023-12-15T22:52:19.348Z,10.93
2023-12-15T22:54:51.440Z,10.52
2023-12-15T22:57:24.760Z,9.73
2023-12-15T22:59:55.321Z,10.32
2023-12-15T23:02:26.106Z,10.30
2023-12-15T23:04:56.695Z,9.77
2023-12-15T23:07:27.269Z,10.55
2023-12-15T23:09:57.825Z,10.90
2023-12-15T23:12:31.127Z,10.05
2023-12-15T23:15:07.431Z,10.23
2023-12-15T23:17:46.497Z,9.57
2023-12-15T23:20:18.183Z,11.13
2023-12-15T23:22:49.163Z,10.57
2023-12-15T23:25:20.227Z,10.82
2023-12-15T23:27:53.384Z,11.15
2023-12-15T23:30:25.131Z,11.55
2023-12-15T23:32:55.813Z,11.00
2023-12-15T23:35:26.268Z,10.65
2023-12-15T23:37:56.696Z,10.85
2023-12-15T23:40:27.230Z,11.48
2023-12-15T23:43:00.463Z,11.27
2023-12-15T23:45:31.070Z,12.55
2023-12-15T23:48:01.651Z,12.38
2023-12-15T23:50:32.170Z,11.18
2023-12-15T23:53:02.641Z,11.18
2023-12-15T23:55:33.604Z,12.32
2023-12-15T23:58:07.280Z,12.18
